Latest Weather Observations for Munglinup West

IDW60801

Issued at 4:32 pm WST Saturday 13 February 2016 (issued every 30 minutes, with the page automatically refreshed every 10 minutes)

About weather observations | Map of weather stations | Latest weather observations for WA | Other Formats
Station Details ID: 012044 Name: MUNGLINUP WEST Lat: -33.55 Lon: 120.70 Height: 220.0 m
Data from the previous 72 hours. | See also: Recent months at Munglinup West
Date/Time
WST
Temp
°C
App
Temp
°C
Dew
Point
Rel
Hum
%
Delta-T
°C
Wind Press
QNH
hPa
Press
MSL
hPa
Rain
since 9 am
mm
Dir
 
Spd
km/h
Gust
km/h
Spd
kts
Gust
kts
13/04:30pm 19.5 15.8 11.5 60 4.4 SSE 22 30 12 16 1021.9 1021.0 0.0
13/04:00pm 20.6 16.1 11.5 56 5.1 SSE 26 37 14 20 1021.8 1020.9 0.0
13/03:30pm 21.5 17.0 11.5 53 5.6 S 26 35 14 19 1021.8 1020.9 0.0
13/03:00pm 21.3 17.2 10.2 49 6.1 S 22 39 12 21 1021.7 1020.8 0.0
13/02:30pm 22.6 19.0 10.7 47 6.6 S 20 37 11 20 1021.6 1020.7 0.0
13/02:00pm 22.3 18.7 10.5 47 6.5 S 20 32 11 17 1021.8 1020.9 0.0
13/01:30pm 23.1 18.9 11.2 47 6.7 SSE 24 39 13 21 1021.8 1020.9 0.0
13/01:00pm 23.4 19.6 12.4 50 6.3 S 24 35 13 19 1022.1 1021.2 0.0
13/12:30pm 22.3 18.5 12.3 53 5.7 S 24 35 13 19 1022.3 1021.4 0.0
13/12:00pm 23.2 18.9 12.2 50 6.3 SSW 26 35 14 19 1022.3 1021.4 0.0
13/11:30am 22.1 18.9 11.2 50 6.1 SSW 19 32 10 17 1022.5 1021.6 0.0
13/11:00am 21.2 17.5 11.5 54 5.4 SSW 22 32 12 17 1022.8 1021.9 0.0
13/10:30am 22.1 18.3 12.4 54 5.6 SSW 24 33 13 18 1022.7 1021.8 0.0
13/10:00am 21.9 18.3 10.4 48 6.3 S 20 33 11 18 1022.8 1021.9 0.0
13/09:30am 20.7 18.0 10.2 51 5.7 SSW 15 24 8 13 1022.9 1022.0 0.0
13/09:00am 20.2 16.7 10.3 53 5.4 S 19 26 10 14 1023.0 1022.1 0.0
13/08:30am 20.2 16.9 11.7 58 4.8 SSW 20 30 11 16 1022.9 1022.0 0.0
13/08:00am 19.2 15.9 11.5 61 4.3 SSW 20 28 11 15 1023.0 1022.1 0.0
13/07:30am 18.7 15.3 12.5 67 3.5 SSW 22 33 12 18 1022.8 1021.9 0.0
13/07:00am 18.0 15.3 12.9 72 2.9 SSW 19 26 10 14 1022.5 1021.6 0.0
13/06:30am 17.4 15.1 12.9 75 2.5 SSW 17 22 9 12 1022.2 1021.3 0.0
13/06:00am 17.2 15.3 14.1 82 1.8 SSW 17 24 9 13 1021.9 1021.0 0.0
13/05:30am 17.0 16.3 15.3 90 1.0 S 13 19 7 10 1021.5 1020.6 0.0
13/05:00am 17.3 17.0 15.5 89 1.1 S 11 17 6 9 1020.9 1020.0 0.0
13/04:30am 17.5 16.2 15.7 89 1.1 SSW 17 28 9 15 1020.6 1019.7 0.0
13/04:00am 17.8 18.9 16.5 92 0.8 S 6 9 3 5 1020.3 1019.4 0.0
13/03:30am 17.9 18.5 16.8 93 0.7 S 9 15 5 8 1020.2 1019.2 0.0
13/03:00am 18.1 18.6 16.6 91 0.9 S 9 11 5 6 1019.9 1018.9 0.0
13/02:30am 18.1 18.6 16.6 91 0.9 SSE 9 13 5 7 1019.8 1018.8 0.0
13/02:00am 18.2 18.4 16.7 91 0.9 S 11 17 6 9 1019.6 1018.7 0.0
13/01:30am 18.4 18.9 16.6 89 1.1 SSW 9 13 5 7 1019.6 1018.7 0.0
13/01:00am 18.4 18.5 16.4 88 1.2 S 11 17 6 9 1019.5 1018.6 0.0
13/12:30am 18.4 18.2 16.7 90 1.0 SSE 13 17 7 9 1019.5 1018.6 0.0
13/12:00am 18.4 18.4 17.1 92 0.8 S 13 19 7 10 1019.6 1018.7 0.0
 
Date/Time
WST
Temp
°C
App
Temp
°C
Dew
Point
Rel
Hum
%
Delta-T
°C
Wind Press
QNH
hPa
Press
MSL
hPa
Rain
since 9 am
mm
Dir
 
Spd
km/h
Gust
km/h
Spd
kts
Gust
kts
12/11:30pm 18.2 18.1 17.0 93 0.7 SSW 13 17 7 9 1019.6 1018.7 0.0
12/11:00pm 18.1 18.4 17.0 93 0.7 SSW 11 17 6 9 1019.8 1018.8 0.0
12/10:30pm 17.8 17.9 16.5 92 0.8 SSW 11 17 6 9 1020.0 1019.0 0.0
12/10:00pm 18.0 18.0 16.2 89 1.1 SSW 11 15 6 8 1020.1 1019.1 0.0
12/09:30pm 17.7 17.6 16.0 90 1.0 S 11 17 6 9 1020.1 1019.1 0.0
12/09:00pm 16.6 16.2 15.3 92 0.8 S 11 15 6 8 1020.0 1019.0 0.0
12/08:30pm 17.0 16.2 15.2 89 1.1 S 13 19 7 10 1019.8 1018.8 0.0
12/08:00pm 17.3 16.1 15.1 87 1.3 S 15 19 8 10 1019.5 1018.6 0.0
12/07:30pm 17.8 16.2 15.1 84 1.6 S 17 22 9 12 1019.2 1018.3 0.0
12/07:00pm 18.3 16.9 14.4 78 2.3 S 15 22 8 12 1018.8 1017.9 0.0
12/06:30pm 19.2 17.4 14.5 74 2.8 S 17 24 9 13 1018.5 1017.6 0.0
12/06:00pm 20.3 17.3 13.7 66 3.8 S 22 32 12 17 1018.4 1017.5 0.0
12/05:30pm 21.5 18.5 13.7 61 4.6 S 22 32 12 17 1018.1 1017.2 0.0
12/05:00pm 22.1 19.5 15.0 64 4.2 S 22 35 12 19 1017.7 1016.8 0.0
12/04:30pm 22.6 19.8 15.4 64 4.3 S 24 33 13 18 1017.5 1016.6 0.0
12/04:00pm 23.7 21.0 15.5 60 5.0 SSW 24 33 13 18 1017.4 1016.5 0.0
12/03:30pm 24.3 21.7 16.0 60 5.1 S 24 35 13 19 1017.2 1016.3 0.0
12/03:00pm 24.4 21.0 15.9 59 5.2 S 28 37 15 20 1017.2 1016.3 0.0
12/02:30pm 25.1 22.3 16.3 58 5.4 S 26 43 14 23 1017.0 1016.1 0.0
12/02:00pm 26.0 24.0 16.5 55 5.9 S 22 35 12 19 1016.9 1016.0 0.0
12/01:30pm 25.8 23.2 16.9 58 5.6 SSW 26 37 14 20 1016.8 1015.9 0.0
12/01:00pm 26.1 23.7 16.4 55 6.0 SSW 24 35 13 19 1016.6 1015.7 0.0
12/12:30pm 26.6 24.6 15.6 50 6.8 SSW 20 33 11 18 1016.6 1015.7 0.0
12/12:00pm 25.7 23.8 15.7 54 6.1 S 20 32 11 17 1016.7 1015.8 0.0
12/11:30am 25.8 23.8 15.5 53 6.3 SSW 20 32 11 17 1016.7 1015.8 0.0
12/11:00am 25.9 24.0 16.7 57 5.7 SW 22 30 12 16 1017.1 1016.2 0.0
12/10:30am 25.0 23.5 16.4 59 5.3 SSW 19 28 10 15 1017.1 1016.2 0.0
12/10:00am 24.3 22.4 16.8 63 4.7 SW 22 33 12 18 1017.0 1016.1 0.0
12/09:30am 23.4 22.1 16.9 67 4.0 SSW 19 28 10 15 1016.9 1016.0 0.0
12/09:00am 22.6 21.2 16.6 69 3.7 SSW 19 24 10 13 1017.1 1016.2 0.0
12/08:30am 21.8 20.0 17.0 74 3.0 SW 22 32 12 17 1017.0 1016.1 0.0
12/08:00am 20.6 18.9 17.2 81 2.1 SSW 22 30 12 16 1017.1 1016.2 0.0
12/07:30am 19.9 18.2 17.3 85 1.6 SW 22 33 12 18 1016.9 1016.0 0.0
12/07:00am 19.4 18.3 17.7 90 1.1 SW 20 26 11 14 1017.0 1016.1 0.0
12/06:30am 19.1 18.1 17.9 93 0.7 SW 20 26 11 14 1016.8 1015.9 0.0
12/06:00am 18.7 17.9 18.0 96 0.4 SW 19 24 10 13 1016.6 1015.7 0.0
12/05:30am 18.6 17.6 17.9 96 0.4 SW 20 26 11 14 1016.2 1015.2 0.0
12/05:00am 18.6 17.7 18.1 97 0.3 SW 20 30 11 16 1015.8 1014.8 0.0
12/04:30am 18.7 18.1 18.4 98 0.2 SW 19 28 10 15 1015.6 1014.6 0.0
12/04:00am 18.9 18.2 18.6 98 0.2 SW 20 28 11 15 1014.8 1013.9 0.0
12/03:30am 18.8 17.7 18.6 99 0.1 SW 22 28 12 15 1014.2 1013.3 0.0
12/03:00am 18.8 18.2 18.8 100 0.0 SW 20 28 11 15 1014.0 1013.1 0.0
12/02:30am 18.7 18.2 18.7 100 0.0 SW 19 24 10 13 1013.7 1012.8 0.0
12/02:00am 18.6 17.9 18.6 100 0.0 SW 20 26 11 14 1013.4 1012.5 0.0
12/01:30am 18.5 17.7 18.5 100 0.0 SW 20 28 11 15 1013.7 1012.8 0.0
12/01:00am 18.6 18.4 18.6 100 0.0 SW 17 24 9 13 1013.7 1012.8 0.0
12/12:30am 18.5 17.3 18.5 100 0.0 SW 22 32 12 17 1013.9 1013.0 0.0
12/12:00am 18.4 17.6 18.4 100 0.0 SW 20 26 11 14 1014.0 1013.1 0.0
 
Date/Time
WST
Temp
°C
App
Temp
°C
Dew
Point
Rel
Hum
%
Delta-T
°C
Wind Press
QNH
hPa
Press
MSL
hPa
Rain
since 9 am
mm
Dir
 
Spd
km/h
Gust
km/h
Spd
kts
Gust
kts
11/11:30pm 18.4 18.2 18.4 100 0.0 SW 17 22 9 12 1013.9 1013.0 0.0
11/11:00pm 18.4 18.2 18.4 100 0.0 SW 17 22 9 12 1013.6 1012.7 0.0
11/10:30pm 18.0 18.3 17.8 99 0.1 SW 13 19 7 10 1013.6 1012.7 0.0
11/10:00pm 17.8 18.6 17.3 97 0.3 SSW 9 13 5 7 1013.6 1012.7 0.0
11/09:30pm 18.4 19.0 17.6 95 0.5 SW 11 13 6 7 1013.5 1012.6 0.0
11/09:00pm 18.7 19.2 17.4 92 0.8 SW 11 15 6 8 1013.6 1012.7 0.0
11/08:30pm 18.4 18.7 16.0 86 1.4 SW 9 13 5 7 1013.4 1012.5 0.0
11/08:00pm 19.3 19.7 16.2 82 1.9 SW 9 13 5 7 1013.2 1012.3 0.0
11/07:30pm 19.9 20.1 15.7 77 2.5 SW 9 11 5 6 1013.0 1012.1 0.0
11/07:00pm 22.3 23.6 17.0 72 3.3 S 6 7 3 4 1012.8 1011.9 0.0
11/06:30pm 24.0 24.0 17.3 66 4.2 SSW 13 17 7 9 1012.8 1011.9 0.0
11/06:00pm 25.1 24.8 17.3 62 4.9 S 15 19 8 10 1012.3 1011.4 0.0
11/05:30pm 25.7 24.9 18.1 63 4.8 SSW 19 26 10 14 1012.1 1011.1 0.0
11/05:00pm 26.8 25.7 17.8 57 5.7 SSW 20 28 11 15 1011.9 1010.9 0.0
11/04:30pm 28.7 28.5 18.5 54 6.6 S 17 26 9 14 1011.7 1010.7 0.0
11/04:00pm 30.2 29.5 18.6 49 7.6 S 20 30 11 16 1011.7 1010.7 0.0
11/03:30pm 31.5 30.6 18.1 44 8.7 S 20 28 11 15 1011.6 1010.6 0.0
11/03:00pm 33.7 33.4 18.2 39 10.1 SSE 17 26 9 14 1011.5 1010.5 0.0
11/02:30pm 33.3 32.8 18.6 41 9.7 S 19 26 10 14 1011.7 1010.7 0.0
11/02:00pm 33.0 32.4 18.4 42 9.6 S 19 26 10 14 1012.1 1011.1 0.0
11/01:30pm 33.5 33.2 19.2 43 9.5 S 19 26 10 14 1012.4 1011.5 0.0
11/01:00pm 34.7 34.6 19.5 40 10.1 S 19 28 10 15 1012.6 1011.7 0.0
11/12:30pm 35.4 34.8 18.9 37 10.9 SSW 20 26 11 14 1012.8 1011.9 0.0
11/12:00pm 38.9 37.3 15.9 25 14.8 W 19 32 10 17 1012.7 1011.8 0.0
11/11:30am 38.9 34.2 7.6 15 17.9 WNW 22 33 12 18 1013.1 1012.2 0.0
11/11:00am 37.7 33.4 9.3 18 16.6 NW 22 32 12 17 1013.5 1012.6 0.0
11/10:30am 36.4 30.9 9.1 19 15.8 NNW 28 39 15 21 1013.8 1012.9 0.0
11/10:00am 35.5 30.6 9.8 21 15.0 NNW 26 35 14 19 1014.0 1013.1 0.0
11/09:30am 34.2 29.4 8.8 21 14.5 NNW 24 35 13 19 1014.3 1013.4 0.0
11/09:00am 32.3 27.9 10.4 26 12.7 N 24 32 13 17 1014.5 1013.6 -
11/08:30am 29.7 26.8 13.9 38 9.6 N 22 32 12 17 1014.5 1013.6 -
11/08:00am 26.7 25.0 16.3 53 6.5 N 20 28 11 15 1014.7 1013.8 -
11/07:53am 25.6 25.8 19.3 68 4.1 N 17 24 9 13 1014.8 1013.9 -
11/07:30am 20.5 - - - - N 13 20 7 11 1014.7 1013.8 -
11/07:00am 18.2 - - - - N 7 11 4 6 1015.2 1014.2 -
11/06:30am 17.1 - - - - N 4 7 2 4 1015.2 1014.2 -
11/06:00am 17.0 - - - - N 7 9 4 5 1015.1 1014.1 -
11/05:30am 16.9 - - - - N 6 9 3 5 1015.2 1014.2 -
11/05:00am 17.3 - - - - CALM 0 2 0 1 1015.2 1014.2 -
11/04:30am 17.1 18.8 17.1 100 0.0 WSW 4 6 2 3 1015.1 1014.1 -
11/04:00am 17.1 19.5 17.1 100 0.0 CALM 0 0 0 0 1014.5 1013.6 -
11/03:30am 17.5 20.1 17.5 100 0.0 CALM 0 0 0 0 1014.6 1013.7 -
11/03:00am 17.6 19.9 17.6 100 0.0 SSW 2 4 1 2 1014.8 1013.9 -
11/02:30am 17.7 19.2 17.7 100 0.0 SSW 6 7 3 4 1014.8 1013.9 -
11/02:00am 17.9 19.5 17.9 100 0.0 SW 6 7 3 4 1015.1 1014.1 -
11/01:30am 17.7 19.2 17.7 100 0.0 SW 6 7 3 4 1015.3 1014.3 -
11/01:00am 18.0 20.4 18.0 100 0.0 S 2 4 1 2 1015.4 1014.4 -
11/12:30am 18.1 19.8 18.1 100 0.0 SSE 6 9 3 5 1015.7 1014.7 -
11/12:00am 18.2 19.8 18.2 100 0.0 SSE 7 9 4 5 1016.0 1015.0 -
 
Date/Time
WST
Temp
°C
App
Temp
°C
Dew
Point
Rel
Hum
%
Delta-T
°C
Wind Press
QNH
hPa
Press
MSL
hPa
Rain
since 9 am
mm
Dir
 
Spd
km/h
Gust
km/h
Spd
kts
Gust
kts
10/11:30pm 18.3 19.5 18.3 100 0.0 S 9 13 5 7 1016.3 1015.4 0.0
10/11:00pm 18.3 19.9 18.3 100 0.0 S 7 9 4 5 1016.4 1015.5 0.0
10/10:30pm 18.3 19.9 18.3 100 0.0 SSE 7 13 4 7 1016.5 1015.6 0.0
10/10:00pm 18.3 19.2 18.3 100 0.0 SSE 11 19 6 10 1016.7 1015.8 0.0
10/09:30pm 18.6 19.2 18.6 100 0.0 S 13 20 7 11 1017.0 1016.1 0.0
10/09:00pm 18.7 19.3 18.5 99 0.1 SSE 13 19 7 10 1016.9 1016.0 0.0
10/08:30pm 18.7 19.4 18.0 96 0.4 S 11 17 6 9 1016.9 1016.0 0.0
10/08:00pm 19.3 20.1 18.1 93 0.7 S 11 17 6 9 1016.8 1015.9 0.0
10/07:30pm 20.1 20.4 17.9 87 1.4 S 13 20 7 11 1016.4 1015.5 0.0
10/07:00pm 21.5 21.3 17.7 79 2.4 SSE 15 20 8 11 1016.1 1015.1 0.0
10/06:30pm 22.9 22.0 17.8 73 3.2 SE 19 24 10 13 1015.8 1014.8 0.0
10/06:00pm 24.4 23.8 17.6 66 4.3 SSE 17 22 9 12 1015.7 1014.7 0.0
10/05:30pm 26.0 24.7 16.8 57 5.7 SSE 19 26 10 14 1015.5 1014.5 0.0
10/05:00pm 26.9 26.0 17.7 57 5.8 SSE 19 28 10 15 1015.4 1014.4 0.0

Other Formats:

Comma delimited format used in spreadsheet applications
http://www.bom.gov.au/fwo/IDW60801/IDW60801.95644.axf

JavaScript Object Notation format (JSON) in row-major order
http://www.bom.gov.au/fwo/IDW60801/IDW60801.95644.json